sensor_id;sensor_type;location;lat;lon;timestamp;P1;durP1;ratioP1;P2;durP2;ratioP2
59486;SDS011;45298;54.918;73.504;2023-09-19T00:00:58;13.50;;;6.00;;
59486;SDS011;45298;54.918;73.504;2023-09-19T00:03:27;12.32;;;4.53;;
59486;SDS011;45298;54.918;73.504;2023-09-19T00:05:57;10.93;;;4.57;;
59486;SDS011;45298;54.918;73.504;2023-09-19T00:08:26;9.18;;;3.85;;
59486;SDS011;45298;54.918;73.504;2023-09-19T00:10:55;8.00;;;3.50;;
59486;SDS011;45298;54.918;73.504;2023-09-19T00:13:33;5.40;;;2.80;;
59486;SDS011;45298;54.918;73.504;2023-09-19T00:16:10;6.82;;;3.25;;
59486;SDS011;45298;54.918;73.504;2023-09-19T00:18:40;7.70;;;2.92;;
59486;SDS011;45298;54.918;73.504;2023-09-19T00:21:08;7.25;;;3.00;;
59486;SDS011;45298;54.918;73.504;2023-09-19T00:23:38;6.00;;;2.80;;
59486;SDS011;45298;54.918;73.504;2023-09-19T00:26:09;4.88;;;2.60;;
59486;SDS011;45298;54.918;73.504;2023-09-19T00:28:38;6.63;;;3.00;;
59486;SDS011;45298;54.918;73.504;2023-09-19T00:31:09;5.00;;;2.45;;
59486;SDS011;45298;54.918;73.504;2023-09-19T00:33:38;5.95;;;2.80;;
59486;SDS011;45298;54.918;73.504;2023-09-19T00:36:07;7.47;;;3.17;;
59486;SDS011;45298;54.918;73.504;2023-09-19T00:38:36;6.47;;;3.05;;
59486;SDS011;45298;54.918;73.504;2023-09-19T00:41:05;9.50;;;3.15;;
59486;SDS011;45298;54.918;73.504;2023-09-19T00:43:35;11.70;;;3.90;;
59486;SDS011;45298;54.918;73.504;2023-09-19T00:46:04;14.27;;;4.88;;
59486;SDS011;45298;54.918;73.504;2023-09-19T00:48:38;9.27;;;4.50;;
59486;SDS011;45298;54.918;73.504;2023-09-19T00:51:11;8.32;;;4.18;;
59486;SDS011;45298;54.918;73.504;2023-09-19T00:53:42;9.30;;;4.55;;
59486;SDS011;45298;54.918;73.504;2023-09-19T00:56:14;11.43;;;4.50;;
59486;SDS011;45298;54.918;73.504;2023-09-19T00:58:46;10.45;;;4.43;;
59486;SDS011;45298;54.918;73.504;2023-09-19T01:01:16;10.10;;;3.75;;
59486;SDS011;45298;54.918;73.504;2023-09-19T01:03:45;9.50;;;4.63;;
59486;SDS011;45298;54.918;73.504;2023-09-19T01:06:14;6.93;;;3.60;;
59486;SDS011;45298;54.918;73.504;2023-09-19T01:08:45;10.65;;;4.40;;
59486;SDS011;45298;54.918;73.504;2023-09-19T01:11:17;9.65;;;3.92;;
59486;SDS011;45298;54.918;73.504;2023-09-19T01:14:14;10.73;;;5.03;;
59486;SDS011;45298;54.918;73.504;2023-09-19T01:17:40;10.80;;;4.82;;
59486;SDS011;45298;54.918;73.504;2023-09-19T01:23:07;10.40;;;3.83;;
59486;SDS011;45298;54.918;73.504;2023-09-19T01:25:47;9.73;;;4.80;;
59486;SDS011;45298;54.918;73.504;2023-09-19T01:28:34;8.55;;;3.47;;
59486;SDS011;45298;54.918;73.504;2023-09-19T01:31:09;8.15;;;3.60;;
59486;SDS011;45298;54.918;73.504;2023-09-19T01:36:32;7.13;;;3.63;;
59486;SDS011;45298;54.918;73.504;2023-09-19T01:39:07;8.88;;;3.35;;
59486;SDS011;45298;54.918;73.504;2023-09-19T01:47:23;7.00;;;3.53;;
59486;SDS011;45298;54.918;73.504;2023-09-19T01:52:31;9.77;;;4.07;;
59486;SDS011;45298;54.918;73.504;2023-09-19T01:55:08;9.65;;;3.58;;
59486;SDS011;45298;54.918;73.504;2023-09-19T01:58:21;5.72;;;3.05;;
59486;SDS011;45298;54.918;73.504;2023-09-19T02:00:42;8.35;;;3.38;;
59486;SDS011;45298;54.918;73.504;2023-09-19T02:03:12;5.50;;;2.83;;
59486;SDS011;45298;54.918;73.504;2023-09-19T02:05:47;6.53;;;3.20;;
59486;SDS011;45298;54.918;73.504;2023-09-19T02:08:19;6.93;;;2.97;;
59486;SDS011;45298;54.918;73.504;2023-09-19T02:10:48;6.88;;;3.22;;
59486;SDS011;45298;54.918;73.504;2023-09-19T02:13:18;87.03;;;24.17;;
59486;SDS011;45298;54.918;73.504;2023-09-19T02:15:49;22.48;;;9.10;;
59486;SDS011;45298;54.918;73.504;2023-09-19T02:18:18;14.43;;;5.80;;
59486;SDS011;45298;54.918;73.504;2023-09-19T02:20:47;53.53;;;17.25;;
59486;SDS011;45298;54.918;73.504;2023-09-19T02:23:19;46.72;;;17.42;;
59486;SDS011;45298;54.918;73.504;2023-09-19T02:25:53;19.67;;;7.65;;
59486;SDS011;45298;54.918;73.504;2023-09-19T02:28:22;38.17;;;15.27;;
59486;SDS011;45298;54.918;73.504;2023-09-19T02:30:51;31.50;;;13.73;;
59486;SDS011;45298;54.918;73.504;2023-09-19T02:33:20;23.77;;;9.98;;
59486;SDS011;45298;54.918;73.504;2023-09-19T02:35:56;21.92;;;10.02;;
59486;SDS011;45298;54.918;73.504;2023-09-19T02:38:32;27.15;;;11.68;;
59486;SDS011;45298;54.918;73.504;2023-09-19T02:41:01;28.35;;;11.00;;
59486;SDS011;45298;54.918;73.504;2023-09-19T02:43:31;11.65;;;4.85;;
59486;SDS011;45298;54.918;73.504;2023-09-19T02:46:01;6.05;;;2.88;;
59486;SDS011;45298;54.918;73.504;2023-09-19T02:48:31;8.68;;;2.75;;
59486;SDS011;45298;54.918;73.504;2023-09-19T02:51:00;10.43;;;2.55;;
59486;SDS011;45298;54.918;73.504;2023-09-19T02:53:29;8.73;;;2.75;;
59486;SDS011;45298;54.918;73.504;2023-09-19T02:55:59;6.00;;;2.78;;
59486;SDS011;45298;54.918;73.504;2023-09-19T02:58:29;5.72;;;2.45;;
59486;SDS011;45298;54.918;73.504;2023-09-19T03:00:59;6.63;;;3.20;;
59486;SDS011;45298;54.918;73.504;2023-09-19T03:03:28;6.75;;;2.22;;
59486;SDS011;45298;54.918;73.504;2023-09-19T03:05:57;9.45;;;2.78;;
59486;SDS011;45298;54.918;73.504;2023-09-19T03:08:26;7.80;;;2.67;;
59486;SDS011;45298;54.918;73.504;2023-09-19T03:10:56;4.95;;;2.10;;
59486;SDS011;45298;54.918;73.504;2023-09-19T03:13:25;6.80;;;3.00;;
59486;SDS011;45298;54.918;73.504;2023-09-19T03:15:57;5.97;;;2.50;;
59486;SDS011;45298;54.918;73.504;2023-09-19T03:18:27;5.18;;;2.42;;
59486;SDS011;45298;54.918;73.504;2023-09-19T03:20:56;8.38;;;2.65;;
59486;SDS011;45298;54.918;73.504;2023-09-19T03:23:29;6.00;;;2.45;;
59486;SDS011;45298;54.918;73.504;2023-09-19T03:25:59;4.25;;;2.25;;
59486;SDS011;45298;54.918;73.504;2023-09-19T03:28:33;4.03;;;2.00;;
59486;SDS011;45298;54.918;73.504;2023-09-19T03:31:03;4.80;;;2.28;;
59486;SDS011;45298;54.918;73.504;2023-09-19T03:33:35;9.40;;;2.80;;
59486;SDS011;45298;54.918;73.504;2023-09-19T03:36:05;4.97;;;2.13;;
59486;SDS011;45298;54.918;73.504;2023-09-19T03:38:35;6.78;;;2.45;;
59486;SDS011;45298;54.918;73.504;2023-09-19T03:41:03;5.05;;;2.35;;
59486;SDS011;45298;54.918;73.504;2023-09-19T03:43:35;6.13;;;2.40;;
59486;SDS011;45298;54.918;73.504;2023-09-19T03:46:04;5.38;;;2.25;;
59486;SDS011;45298;54.918;73.504;2023-09-19T03:48:34;5.10;;;2.63;;
59486;SDS011;45298;54.918;73.504;2023-09-19T03:51:03;6.10;;;2.63;;
59486;SDS011;45298;54.918;73.504;2023-09-19T03:53:32;3.63;;;1.90;;
59486;SDS011;45298;54.918;73.504;2023-09-19T03:56:01;4.57;;;2.25;;
59486;SDS011;45298;54.918;73.504;2023-09-19T03:58:32;6.50;;;2.38;;
59486;SDS011;45298;54.918;73.504;2023-09-19T04:01:02;6.05;;;2.60;;
59486;SDS011;45298;54.918;73.504;2023-09-19T04:03:32;3.80;;;2.20;;
59486;SDS011;45298;54.918;73.504;2023-09-19T04:06:16;6.78;;;2.28;;
59486;SDS011;45298;54.918;73.504;2023-09-19T04:08:45;6.18;;;2.17;;
59486;SDS011;45298;54.918;73.504;2023-09-19T04:11:15;5.30;;;2.17;;
59486;SDS011;45298;54.918;73.504;2023-09-19T04:13:45;4.95;;;2.38;;
59486;SDS011;45298;54.918;73.504;2023-09-19T04:16:15;5.13;;;2.20;;
59486;SDS011;45298;54.918;73.504;2023-09-19T04:18:44;7.05;;;2.95;;
59486;SDS011;45298;54.918;73.504;2023-09-19T04:21:14;4.00;;;1.88;;
59486;SDS011;45298;54.918;73.504;2023-09-19T04:23:42;5.63;;;2.45;;
59486;SDS011;45298;54.918;73.504;2023-09-19T04:26:11;5.13;;;2.28;;
59486;SDS011;45298;54.918;73.504;2023-09-19T04:28:40;3.78;;;1.80;;
59486;SDS011;45298;54.918;73.504;2023-09-19T04:31:11;4.45;;;1.95;;
59486;SDS011;45298;54.918;73.504;2023-09-19T04:33:42;5.88;;;2.15;;
59486;SDS011;45298;54.918;73.504;2023-09-19T04:36:11;5.28;;;2.00;;
59486;SDS011;45298;54.918;73.504;2023-09-19T04:39:01;3.28;;;1.38;;
59486;SDS011;45298;54.918;73.504;2023-09-19T04:41:32;8.63;;;1.50;;
59486;SDS011;45298;54.918;73.504;2023-09-19T04:44:02;4.28;;;1.80;;
59486;SDS011;45298;54.918;73.504;2023-09-19T04:46:31;4.45;;;1.40;;
59486;SDS011;45298;54.918;73.504;2023-09-19T04:49:00;3.28;;;1.40;;
59486;SDS011;45298;54.918;73.504;2023-09-19T04:51:30;2.85;;;1.23;;
59486;SDS011;45298;54.918;73.504;2023-09-19T04:54:02;5.05;;;1.48;;
59486;SDS011;45298;54.918;73.504;2023-09-19T04:56:31;2.47;;;1.15;;
59486;SDS011;45298;54.918;73.504;2023-09-19T04:59:01;3.15;;;1.42;;
59486;SDS011;45298;54.918;73.504;2023-09-19T05:01:31;3.03;;;1.15;;
59486;SDS011;45298;54.918;73.504;2023-09-19T05:04:00;2.05;;;1.02;;
59486;SDS011;45298;54.918;73.504;2023-09-19T05:06:29;1.70;;;1.25;;
59486;SDS011;45298;54.918;73.504;2023-09-19T05:08:58;4.30;;;1.50;;
59486;SDS011;45298;54.918;73.504;2023-09-19T05:11:28;3.22;;;1.40;;
59486;SDS011;45298;54.918;73.504;2023-09-19T05:13:58;4.22;;;1.45;;
59486;SDS011;45298;54.918;73.504;2023-09-19T05:16:31;1.73;;;1.00;;
59486;SDS011;45298;54.918;73.504;2023-09-19T05:19:00;3.17;;;1.40;;
59486;SDS011;45298;54.918;73.504;2023-09-19T05:21:30;2.45;;;1.08;;
59486;SDS011;45298;54.918;73.504;2023-09-19T05:23:59;3.90;;;1.67;;
59486;SDS011;45298;54.918;73.504;2023-09-19T05:26:29;4.07;;;1.75;;
59486;SDS011;45298;54.918;73.504;2023-09-19T05:28:58;2.45;;;1.20;;
59486;SDS011;45298;54.918;73.504;2023-09-19T05:31:26;3.10;;;1.38;;
59486;SDS011;45298;54.918;73.504;2023-09-19T05:33:56;3.53;;;1.58;;
59486;SDS011;45298;54.918;73.504;2023-09-19T05:36:25;3.17;;;1.38;;
59486;SDS011;45298;54.918;73.504;2023-09-19T05:38:54;3.20;;;1.25;;
59486;SDS011;45298;54.918;73.504;2023-09-19T05:41:23;2.75;;;1.40;;
59486;SDS011;45298;54.918;73.504;2023-09-19T05:46:30;4.03;;;1.92;;
59486;SDS011;45298;54.918;73.504;2023-09-19T05:48:59;3.20;;;1.60;;
59486;SDS011;45298;54.918;73.504;2023-09-19T05:51:29;2.47;;;1.15;;
59486;SDS011;45298;54.918;73.504;2023-09-19T05:53:57;4.05;;;2.00;;
59486;SDS011;45298;54.918;73.504;2023-09-19T05:56:29;2.58;;;1.30;;
59486;SDS011;45298;54.918;73.504;2023-09-19T05:58:58;2.97;;;1.42;;
59486;SDS011;45298;54.918;73.504;2023-09-19T06:01:28;2.53;;;1.35;;
59486;SDS011;45298;54.918;73.504;2023-09-19T06:03:57;3.35;;;1.60;;
59486;SDS011;45298;54.918;73.504;2023-09-19T06:06:28;3.55;;;1.25;;
59486;SDS011;45298;54.918;73.504;2023-09-19T06:08:58;2.60;;;1.48;;
59486;SDS011;45298;54.918;73.504;2023-09-19T06:11:27;4.22;;;1.88;;
59486;SDS011;45298;54.918;73.504;2023-09-19T06:13:57;4.93;;;1.88;;
59486;SDS011;45298;54.918;73.504;2023-09-19T06:16:28;3.65;;;1.77;;
59486;SDS011;45298;54.918;73.504;2023-09-19T06:19:00;5.43;;;1.63;;
59486;SDS011;45298;54.918;73.504;2023-09-19T06:21:29;6.30;;;1.70;;
59486;SDS011;45298;54.918;73.504;2023-09-19T06:24:00;4.25;;;1.70;;
59486;SDS011;45298;54.918;73.504;2023-09-19T06:26:29;3.67;;;1.83;;
59486;SDS011;45298;54.918;73.504;2023-09-19T06:29:01;3.08;;;1.70;;
59486;SDS011;45298;54.918;73.504;2023-09-19T06:31:35;3.03;;;1.42;;
59486;SDS011;45298;54.918;73.504;2023-09-19T06:34:04;4.45;;;2.20;;
59486;SDS011;45298;54.918;73.504;2023-09-19T06:36:33;2.63;;;1.40;;
59486;SDS011;45298;54.918;73.504;2023-09-19T06:39:01;3.47;;;1.38;;
59486;SDS011;45298;54.918;73.504;2023-09-19T06:41:32;3.65;;;1.83;;
59486;SDS011;45298;54.918;73.504;2023-09-19T06:44:07;4.88;;;1.83;;
59486;SDS011;45298;54.918;73.504;2023-09-19T06:46:37;7.22;;;2.58;;
59486;SDS011;45298;54.918;73.504;2023-09-19T06:49:07;2.60;;;1.58;;
59486;SDS011;45298;54.918;73.504;2023-09-19T06:51:36;4.00;;;2.13;;
59486;SDS011;45298;54.918;73.504;2023-09-19T06:54:05;3.33;;;1.88;;
59486;SDS011;45298;54.918;73.504;2023-09-19T06:56:34;3.83;;;1.70;;
59486;SDS011;45298;54.918;73.504;2023-09-19T06:59:03;2.85;;;1.63;;
59486;SDS011;45298;54.918;73.504;2023-09-19T07:01:34;2.75;;;1.45;;
59486;SDS011;45298;54.918;73.504;2023-09-19T07:04:13;3.15;;;1.50;;
59486;SDS011;45298;54.918;73.504;2023-09-19T07:06:42;4.57;;;2.10;;
59486;SDS011;45298;54.918;73.504;2023-09-19T07:09:17;11.25;;;3.70;;
59486;SDS011;45298;54.918;73.504;2023-09-19T07:11:50;3.60;;;1.77;;
59486;SDS011;45298;54.918;73.504;2023-09-19T07:14:19;10.15;;;2.92;;
59486;SDS011;45298;54.918;73.504;2023-09-19T07:16:48;6.35;;;2.83;;
59486;SDS011;45298;54.918;73.504;2023-09-19T07:19:17;3.50;;;1.80;;
59486;SDS011;45298;54.918;73.504;2023-09-19T07:21:46;5.05;;;1.77;;
59486;SDS011;45298;54.918;73.504;2023-09-19T07:24:18;3.33;;;1.58;;
59486;SDS011;45298;54.918;73.504;2023-09-19T07:26:47;4.50;;;1.98;;
59486;SDS011;45298;54.918;73.504;2023-09-19T07:29:16;2.65;;;1.38;;
59486;SDS011;45298;54.918;73.504;2023-09-19T07:31:45;6.60;;;1.80;;
59486;SDS011;45298;54.918;73.504;2023-09-19T07:34:14;5.10;;;2.35;;
59486;SDS011;45298;54.918;73.504;2023-09-19T07:36:43;4.25;;;2.17;;
59486;SDS011;45298;54.918;73.504;2023-09-19T07:39:13;4.90;;;2.10;;
59486;SDS011;45298;54.918;73.504;2023-09-19T07:41:52;4.07;;;2.05;;
59486;SDS011;45298;54.918;73.504;2023-09-19T07:44:22;3.53;;;1.85;;
59486;SDS011;45298;54.918;73.504;2023-09-19T07:46:55;3.33;;;1.83;;
59486;SDS011;45298;54.918;73.504;2023-09-19T07:49:24;4.50;;;2.13;;
59486;SDS011;45298;54.918;73.504;2023-09-19T07:51:53;3.78;;;1.92;;
59486;SDS011;45298;54.918;73.504;2023-09-19T07:54:22;5.15;;;2.38;;
59486;SDS011;45298;54.918;73.504;2023-09-19T07:56:51;5.10;;;1.70;;
59486;SDS011;45298;54.918;73.504;2023-09-19T07:59:21;5.22;;;1.90;;
59486;SDS011;45298;54.918;73.504;2023-09-19T08:01:51;10.07;;;3.90;;
59486;SDS011;45298;54.918;73.504;2023-09-19T08:04:20;3.20;;;1.70;;
59486;SDS011;45298;54.918;73.504;2023-09-19T08:06:52;3.78;;;1.67;;
59486;SDS011;45298;54.918;73.504;2023-09-19T08:09:24;3.78;;;1.80;;
59486;SDS011;45298;54.918;73.504;2023-09-19T08:11:53;5.53;;;2.53;;
59486;SDS011;45298;54.918;73.504;2023-09-19T08:14:22;3.17;;;1.70;;
59486;SDS011;45298;54.918;73.504;2023-09-19T08:16:56;5.15;;;1.80;;
59486;SDS011;45298;54.918;73.504;2023-09-19T08:19:26;2.80;;;1.70;;
59486;SDS011;45298;54.918;73.504;2023-09-19T08:24:31;7.15;;;3.20;;
59486;SDS011;45298;54.918;73.504;2023-09-19T08:27:01;3.03;;;1.63;;
59486;SDS011;45298;54.918;73.504;2023-09-19T08:29:32;3.10;;;1.55;;
59486;SDS011;45298;54.918;73.504;2023-09-19T08:32:03;4.03;;;1.55;;
59486;SDS011;45298;54.918;73.504;2023-09-19T08:34:32;3.33;;;1.83;;
59486;SDS011;45298;54.918;73.504;2023-09-19T08:37:02;3.50;;;1.85;;
59486;SDS011;45298;54.918;73.504;2023-09-19T08:39:31;4.85;;;1.77;;
59486;SDS011;45298;54.918;73.504;2023-09-19T08:42:04;3.53;;;1.48;;
59486;SDS011;45298;54.918;73.504;2023-09-19T08:44:35;3.65;;;2.03;;
59486;SDS011;45298;54.918;73.504;2023-09-19T08:47:11;3.85;;;1.65;;
59486;SDS011;45298;54.918;73.504;2023-09-19T08:49:53;4.40;;;1.92;;
59486;SDS011;45298;54.918;73.504;2023-09-19T08:53:06;4.60;;;2.05;;
59486;SDS011;45298;54.918;73.504;2023-09-19T08:55:40;3.75;;;1.77;;
59486;SDS011;45298;54.918;73.504;2023-09-19T08:58:12;4.03;;;1.83;;
59486;SDS011;45298;54.918;73.504;2023-09-19T09:00:51;3.83;;;1.90;;
59486;SDS011;45298;54.918;73.504;2023-09-19T09:03:29;3.20;;;1.52;;
59486;SDS011;45298;54.918;73.504;2023-09-19T09:06:05;4.82;;;2.38;;
59486;SDS011;45298;54.918;73.504;2023-09-19T09:08:45;3.88;;;2.13;;
59486;SDS011;45298;54.918;73.504;2023-09-19T09:11:16;4.88;;;1.73;;
59486;SDS011;45298;54.918;73.504;2023-09-19T09:13:46;2.55;;;1.27;;
59486;SDS011;45298;54.918;73.504;2023-09-19T09:16:19;3.50;;;1.95;;
59486;SDS011;45298;54.918;73.504;2023-09-19T09:18:48;8.10;;;3.95;;
59486;SDS011;45298;54.918;73.504;2023-09-19T09:21:25;3.15;;;1.70;;
59486;SDS011;45298;54.918;73.504;2023-09-19T09:23:55;6.55;;;2.03;;
59486;SDS011;45298;54.918;73.504;2023-09-19T09:26:49;3.58;;;1.63;;
59486;SDS011;45298;54.918;73.504;2023-09-19T09:29:29;10.20;;;4.10;;
59486;SDS011;45298;54.918;73.504;2023-09-19T09:32:41;3.20;;;1.50;;
59486;SDS011;45298;54.918;73.504;2023-09-19T09:35:34;4.72;;;1.80;;
59486;SDS011;45298;54.918;73.504;2023-09-19T09:38:43;4.70;;;2.00;;
59486;SDS011;45298;54.918;73.504;2023-09-19T09:41:28;5.25;;;1.80;;
59486;SDS011;45298;54.918;73.504;2023-09-19T09:44:19;4.45;;;2.45;;
59486;SDS011;45298;54.918;73.504;2023-09-19T09:46:52;7.47;;;3.28;;
59486;SDS011;45298;54.918;73.504;2023-09-19T09:49:51;3.28;;;1.60;;
59486;SDS011;45298;54.918;73.504;2023-09-19T09:52:44;3.80;;;1.90;;
59486;SDS011;45298;54.918;73.504;2023-09-19T09:55:17;3.10;;;1.63;;
59486;SDS011;45298;54.918;73.504;2023-09-19T09:58:01;5.65;;;2.33;;
59486;SDS011;45298;54.918;73.504;2023-09-19T10:00:54;4.50;;;2.28;;
59486;SDS011;45298;54.918;73.504;2023-09-19T10:03:45;3.58;;;1.88;;
59486;SDS011;45298;54.918;73.504;2023-09-19T10:06:20;2.78;;;1.73;;
59486;SDS011;45298;54.918;73.504;2023-09-19T10:09:05;12.90;;;4.10;;
59486;SDS011;45298;54.918;73.504;2023-09-19T10:12:06;6.65;;;3.10;;
59486;SDS011;45298;54.918;73.504;2023-09-19T10:14:42;3.63;;;1.58;;
59486;SDS011;45298;54.918;73.504;2023-09-19T10:17:18;2.95;;;1.65;;
59486;SDS011;45298;54.918;73.504;2023-09-19T10:20:01;3.72;;;2.17;;
59486;SDS011;45298;54.918;73.504;2023-09-19T10:22:55;9.25;;;4.10;;
59486;SDS011;45298;54.918;73.504;2023-09-19T10:25:36;3.90;;;2.10;;
59486;SDS011;45298;54.918;73.504;2023-09-19T10:28:11;4.95;;;2.10;;
59486;SDS011;45298;54.918;73.504;2023-09-19T10:30:44;9.95;;;3.85;;
59486;SDS011;45298;54.918;73.504;2023-09-19T10:33:22;5.43;;;2.10;;
59486;SDS011;45298;54.918;73.504;2023-09-19T10:35:56;5.25;;;2.28;;
59486;SDS011;45298;54.918;73.504;2023-09-19T10:38:31;5.75;;;1.88;;
59486;SDS011;45298;54.918;73.504;2023-09-19T10:41:19;3.33;;;1.70;;
59486;SDS011;45298;54.918;73.504;2023-09-19T10:43:59;2.90;;;1.70;;
59486;SDS011;45298;54.918;73.504;2023-09-19T10:46:37;3.72;;;1.77;;
59486;SDS011;45298;54.918;73.504;2023-09-19T10:49:08;3.47;;;1.60;;
59486;SDS011;45298;54.918;73.504;2023-09-19T10:51:43;5.00;;;1.52;;
59486;SDS011;45298;54.918;73.504;2023-09-19T10:54:20;8.57;;;1.73;;
59486;SDS011;45298;54.918;73.504;2023-09-19T10:56:58;3.40;;;1.33;;
59486;SDS011;45298;54.918;73.504;2023-09-19T10:59:38;4.57;;;1.38;;
59486;SDS011;45298;54.918;73.504;2023-09-19T11:09:01;3.65;;;1.50;;
59486;SDS011;45298;54.918;73.504;2023-09-19T11:11:48;18.70;;;8.43;;
59486;SDS011;45298;54.918;73.504;2023-09-19T11:14:28;4.10;;;1.52;;
59486;SDS011;45298;54.918;73.504;2023-09-19T11:30:50;2.10;;;1.20;;
59486;SDS011;45298;54.918;73.504;2023-09-19T11:33:30;1.92;;;1.10;;
59486;SDS011;45298;54.918;73.504;2023-09-19T11:39:14;2.90;;;1.50;;
59486;SDS011;45298;54.918;73.504;2023-09-19T11:42:03;4.72;;;2.10;;
59486;SDS011;45298;54.918;73.504;2023-09-19T11:48:18;20.60;;;7.80;;
59486;SDS011;45298;54.918;73.504;2023-09-19T11:50:53;7.55;;;3.00;;
59486;SDS011;45298;54.918;73.504;2023-09-19T11:53:32;6.45;;;1.52;;
59486;SDS011;45298;54.918;73.504;2023-09-19T11:56:06;4.15;;;1.88;;
59486;SDS011;45298;54.918;73.504;2023-09-19T11:58:46;4.55;;;1.58;;
59486;SDS011;45298;54.918;73.504;2023-09-19T12:04:38;40.63;;;15.77;;
59486;SDS011;45298;54.918;73.504;2023-09-19T12:07:15;6.82;;;3.28;;
59486;SDS011;45298;54.918;73.504;2023-09-19T12:09:48;7.45;;;3.15;;
59486;SDS011;45298;54.918;73.504;2023-09-19T12:12:33;4.43;;;2.00;;
59486;SDS011;45298;54.918;73.504;2023-09-19T12:15:05;21.95;;;8.02;;
59486;SDS011;45298;54.918;73.504;2023-09-19T12:20:20;6.78;;;2.85;;
59486;SDS011;45298;54.918;73.504;2023-09-19T12:25:44;8.63;;;3.80;;
59486;SDS011;45298;54.918;73.504;2023-09-19T12:28:21;4.13;;;2.25;;
59486;SDS011;45298;54.918;73.504;2023-09-19T12:31:07;6.13;;;2.03;;
59486;SDS011;45298;54.918;73.504;2023-09-19T12:33:37;4.05;;;2.03;;
59486;SDS011;45298;54.918;73.504;2023-09-19T12:36:25;4.68;;;1.80;;
59486;SDS011;45298;54.918;73.504;2023-09-19T12:39:11;5.13;;;2.15;;
59486;SDS011;45298;54.918;73.504;2023-09-19T12:41:52;12.05;;;4.90;;
59486;SDS011;45298;54.918;73.504;2023-09-19T12:44:23;4.10;;;1.92;;
59486;SDS011;45298;54.918;73.504;2023-09-19T12:47:15;7.40;;;2.35;;
59486;SDS011;45298;54.918;73.504;2023-09-19T12:50:12;4.03;;;1.92;;
59486;SDS011;45298;54.918;73.504;2023-09-19T12:52:49;24.88;;;10.32;;
59486;SDS011;45298;54.918;73.504;2023-09-19T12:55:31;42.33;;;17.58;;
59486;SDS011;45298;54.918;73.504;2023-09-19T12:58:09;48.22;;;18.58;;
59486;SDS011;45298;54.918;73.504;2023-09-19T13:00:47;24.10;;;9.90;;
59486;SDS011;45298;54.918;73.504;2023-09-19T13:03:34;8.85;;;4.63;;
59486;SDS011;45298;54.918;73.504;2023-09-19T13:06:07;12.50;;;5.00;;
59486;SDS011;45298;54.918;73.504;2023-09-19T13:08:40;12.73;;;5.10;;
59486;SDS011;45298;54.918;73.504;2023-09-19T13:11:17;13.68;;;5.53;;
59486;SDS011;45298;54.918;73.504;2023-09-19T13:19:41;17.25;;;6.63;;
59486;SDS011;45298;54.918;73.504;2023-09-19T13:25:14;10.90;;;4.15;;
59486;SDS011;45298;54.918;73.504;2023-09-19T13:28:04;11.02;;;4.75;;
59486;SDS011;45298;54.918;73.504;2023-09-19T13:30:37;18.02;;;6.70;;
59486;SDS011;45298;54.918;73.504;2023-09-19T13:33:11;24.00;;;8.48;;
59486;SDS011;45298;54.918;73.504;2023-09-19T13:35:50;86.15;;;28.45;;
59486;SDS011;45298;54.918;73.504;2023-09-19T13:38:20;38.30;;;14.02;;
59486;SDS011;45298;54.918;73.504;2023-09-19T13:40:58;33.58;;;11.90;;
59486;SDS011;45298;54.918;73.504;2023-09-19T13:43:29;26.23;;;10.60;;
59486;SDS011;45298;54.918;73.504;2023-09-19T13:45:58;34.50;;;14.30;;
59486;SDS011;45298;54.918;73.504;2023-09-19T13:48:29;26.65;;;11.57;;
59486;SDS011;45298;54.918;73.504;2023-09-19T13:50:59;32.53;;;13.30;;
59486;SDS011;45298;54.918;73.504;2023-09-19T13:53:28;28.63;;;12.32;;
59486;SDS011;45298;54.918;73.504;2023-09-19T13:55:57;38.00;;;12.73;;
59486;SDS011;45298;54.918;73.504;2023-09-19T13:58:27;48.90;;;19.50;;
59486;SDS011;45298;54.918;73.504;2023-09-19T14:00:57;36.58;;;14.43;;
59486;SDS011;45298;54.918;73.504;2023-09-19T14:03:36;39.67;;;15.85;;
59486;SDS011;45298;54.918;73.504;2023-09-19T14:06:06;37.78;;;12.98;;
59486;SDS011;45298;54.918;73.504;2023-09-19T14:08:38;34.85;;;13.07;;
59486;SDS011;45298;54.918;73.504;2023-09-19T14:11:10;30.50;;;12.73;;
59486;SDS011;45298;54.918;73.504;2023-09-19T14:13:40;33.28;;;12.68;;
59486;SDS011;45298;54.918;73.504;2023-09-19T14:16:15;30.92;;;11.88;;
59486;SDS011;45298;54.918;73.504;2023-09-19T14:18:58;31.88;;;11.48;;
59486;SDS011;45298;54.918;73.504;2023-09-19T14:21:28;25.25;;;9.48;;
59486;SDS011;45298;54.918;73.504;2023-09-19T14:23:57;23.30;;;9.63;;
59486;SDS011;45298;54.918;73.504;2023-09-19T14:26:26;18.27;;;7.32;;
59486;SDS011;45298;54.918;73.504;2023-09-19T14:28:58;25.45;;;9.10;;
59486;SDS011;45298;54.918;73.504;2023-09-19T14:31:31;28.85;;;10.48;;
59486;SDS011;45298;54.918;73.504;2023-09-19T14:34:01;25.83;;;10.40;;
59486;SDS011;45298;54.918;73.504;2023-09-19T14:36:32;29.67;;;11.82;;
59486;SDS011;45298;54.918;73.504;2023-09-19T14:39:04;20.77;;;9.13;;
59486;SDS011;45298;54.918;73.504;2023-09-19T14:41:34;25.60;;;10.02;;
59486;SDS011;45298;54.918;73.504;2023-09-19T14:44:03;18.77;;;8.70;;
59486;SDS011;45298;54.918;73.504;2023-09-19T14:46:35;17.20;;;8.82;;
59486;SDS011;45298;54.918;73.504;2023-09-19T14:49:05;16.27;;;7.22;;
59486;SDS011;45298;54.918;73.504;2023-09-19T14:51:34;18.65;;;7.20;;
59486;SDS011;45298;54.918;73.504;2023-09-19T14:54:04;14.25;;;6.65;;
59486;SDS011;45298;54.918;73.504;2023-09-19T14:56:33;16.90;;;6.68;;
59486;SDS011;45298;54.918;73.504;2023-09-19T14:59:06;14.30;;;6.38;;
59486;SDS011;45298;54.918;73.504;2023-09-19T15:01:36;16.52;;;6.95;;
59486;SDS011;45298;54.918;73.504;2023-09-19T15:04:07;12.68;;;5.70;;
59486;SDS011;45298;54.918;73.504;2023-09-19T15:06:37;15.15;;;5.97;;
59486;SDS011;45298;54.918;73.504;2023-09-19T15:09:06;16.23;;;5.93;;
59486;SDS011;45298;54.918;73.504;2023-09-19T15:11:37;14.90;;;6.50;;
59486;SDS011;45298;54.918;73.504;2023-09-19T15:14:06;14.27;;;6.35;;
59486;SDS011;45298;54.918;73.504;2023-09-19T15:16:35;14.25;;;5.80;;
59486;SDS011;45298;54.918;73.504;2023-09-19T15:19:09;14.73;;;6.25;;
59486;SDS011;45298;54.918;73.504;2023-09-19T15:21:41;17.00;;;7.57;;
59486;SDS011;45298;54.918;73.504;2023-09-19T15:24:14;14.77;;;5.90;;
59486;SDS011;45298;54.918;73.504;2023-09-19T15:26:45;14.15;;;6.93;;
59486;SDS011;45298;54.918;73.504;2023-09-19T15:29:17;20.70;;;6.93;;
59486;SDS011;45298;54.918;73.504;2023-09-19T15:31:48;17.85;;;6.75;;
59486;SDS011;45298;54.918;73.504;2023-09-19T15:34:17;16.83;;;7.72;;
59486;SDS011;45298;54.918;73.504;2023-09-19T15:36:49;17.48;;;6.53;;
59486;SDS011;45298;54.918;73.504;2023-09-19T15:39:19;14.85;;;6.05;;
59486;SDS011;45298;54.918;73.504;2023-09-19T15:41:50;26.58;;;11.55;;
59486;SDS011;45298;54.918;73.504;2023-09-19T15:44:22;17.83;;;7.28;;
59486;SDS011;45298;54.918;73.504;2023-09-19T15:46:54;16.13;;;7.32;;
59486;SDS011;45298;54.918;73.504;2023-09-19T15:49:25;16.40;;;6.35;;
59486;SDS011;45298;54.918;73.504;2023-09-19T15:51:54;15.63;;;6.18;;
59486;SDS011;45298;54.918;73.504;2023-09-19T15:54:23;17.25;;;8.25;;
59486;SDS011;45298;54.918;73.504;2023-09-19T15:56:56;16.80;;;8.30;;
59486;SDS011;45298;54.918;73.504;2023-09-19T15:59:25;13.70;;;6.22;;
59486;SDS011;45298;54.918;73.504;2023-09-19T16:01:58;14.52;;;5.40;;
59486;SDS011;45298;54.918;73.504;2023-09-19T16:04:30;27.58;;;7.25;;
59486;SDS011;45298;54.918;73.504;2023-09-19T16:07:01;11.25;;;4.88;;
59486;SDS011;45298;54.918;73.504;2023-09-19T16:09:33;14.15;;;5.70;;